Time;durP1;ratioP1;P1;durP2;ratioP2;P2;SDS_P1;SDS_P2;PMS_P1;PMS_P2;Temp;Humidity;BMP_temperature;BMP_pressure;BME280_temperature;BME280_humidity;BME280_pressure;Samples;Min_cycle;Max_cycle;Signal;HPM_P1;HPM_P2
2022/12/25 00:01:15;;;;;;;0.77;0.77;;;11.70;99.90;;;;;;5112787;28;20221;-64
2022/12/25 00:03:42;;;;;;;0.80;0.80;;;11.70;99.90;;;;;;5112315;28;20210;-64
2022/12/25 00:06:09;;;;;;;1.60;0.73;;;11.70;99.90;;;;;;5121514;27;20198;-64
2022/12/25 00:08:40;;;;;;;0.57;0.57;;;11.70;99.90;;;;;;5115044;27;20198;-64
2022/12/25 00:11:09;;;;;;;0.90;0.90;;;11.70;99.90;;;;;;5115887;27;20228;-63
2022/12/25 00:13:36;;;;;;;1.57;0.90;;;11.70;99.90;;;;;;5109848;28;20194;-65
2022/12/25 00:16:06;;;;;;;0.83;0.83;;;11.70;99.90;;;;;;5111506;27;20240;-64
2022/12/25 00:18:33;;;;;;;0.67;0.67;;;11.70;99.90;;;;;;5118197;27;20564;-64
2022/12/25 00:21:01;;;;;;;0.77;0.77;;;11.70;99.90;;;;;;5116547;27;20242;-65
2022/12/25 00:23:29;;;;;;;0.70;0.70;;;11.80;99.90;;;;;;5115508;27;20319;-64
2022/12/25 00:25:58;;;;;;;0.60;0.60;;;11.80;99.90;;;;;;5116314;27;20284;-65
2022/12/25 00:28:25;;;;;;;0.60;0.60;;;11.80;99.90;;;;;;5116312;27;20199;-65
2022/12/25 00:30:52;;;;;;;0.53;0.53;;;11.80;99.90;;;;;;5116588;27;20228;-65
2022/12/25 00:33:19;;;;;;;0.57;0.57;;;11.80;99.90;;;;;;5116445;27;20206;-65
2022/12/25 00:35:57;;;;;;;0.57;0.57;;;11.80;99.90;;;;;;5116699;27;20205;-65
2022/12/25 00:38:24;;;;;;;0.73;0.73;;;11.80;99.90;;;;;;5118099;27;20197;-65
2022/12/25 00:40:51;;;;;;;0.60;0.60;;;11.80;99.90;;;;;;5115943;27;20218;-65
2022/12/25 00:43:19;;;;;;;0.53;0.53;;;11.80;99.90;;;;;;5117467;27;20226;-64
2022/12/25 00:45:54;;;;;;;0.70;0.70;;;11.80;99.90;;;;;;5114779;27;20202;-64
2022/12/25 00:48:21;;;;;;;0.50;0.50;;;11.80;99.90;;;;;;5113711;27;20258;-65
2022/12/25 00:50:48;;;;;;;0.60;0.60;;;11.80;99.90;;;;;;5128346;28;20264;-65
2022/12/25 00:53:15;;;;;;;0.70;0.70;;;11.80;99.90;;;;;;5123802;27;20194;-65
2022/12/25 00:55:42;;;;;;;0.73;0.50;;;11.80;99.90;;;;;;5124736;27;20197;-65
2022/12/25 00:58:08;;;;;;;0.60;0.60;;;11.80;99.90;;;;;;5121606;27;20208;-65
2022/12/25 01:00:38;;;;;;;0.70;0.70;;;11.80;99.90;;;;;;5120104;27;20308;-64
2022/12/25 01:03:05;;;;;;;0.53;0.43;;;11.80;99.90;;;;;;5125199;27;20198;-64
2022/12/25 01:05:32;;;;;;;0.63;0.63;;;11.80;99.90;;;;;;5138037;27;20328;-64
2022/12/25 01:07:59;;;;;;;0.30;0.30;;;11.80;99.90;;;;;;5135046;27;20268;-64
2022/12/25 01:10:24;;;;;;;0.70;0.70;;;11.80;99.90;;;;;;5132023;27;20252;-64
2022/12/25 01:12:51;;;;;;;0.77;0.77;;;11.80;99.90;;;;;;5136371;27;20213;-64
2022/12/25 01:15:19;;;;;;;0.60;0.60;;;11.80;99.90;;;;;;5131908;27;20197;-65
2022/12/25 01:17:47;;;;;;;0.90;0.80;;;11.80;99.90;;;;;;5118687;27;20259;-65
2022/12/25 01:20:16;;;;;;;0.50;0.50;;;11.80;99.90;;;;;;5130947;27;20309;-65
2022/12/25 01:22:43;;;;;;;0.60;0.60;;;11.70;99.90;;;;;;5123673;27;20567;-65
2022/12/25 01:25:11;;;;;;;0.67;0.67;;;11.70;99.90;;;;;;5125465;27;20313;-65
2022/12/25 01:27:39;;;;;;;0.70;0.70;;;11.60;99.90;;;;;;5127685;27;20198;-65
2022/12/25 01:30:07;;;;;;;0.70;0.70;;;11.70;99.90;;;;;;5120869;27;20340;-64
2022/12/25 01:32:33;;;;;;;0.40;0.40;;;11.50;99.90;;;;;;5126533;27;20262;-64
2022/12/25 01:35:02;;;;;;;0.80;0.80;;;11.50;99.90;;;;;;5119955;27;20289;-64
2022/12/25 01:37:28;;;;;;;0.70;0.60;;;11.50;99.90;;;;;;5106853;27;20956;-64
2022/12/25 01:39:55;;;;;;;0.77;0.77;;;11.50;99.90;;;;;;5122109;27;20224;-64
2022/12/25 01:42:23;;;;;;;0.80;0.80;;;11.50;99.90;;;;;;5122162;27;20387;-64
2022/12/25 01:45:35;;;;;;;0.73;0.73;;;11.60;99.90;;;;;;5123359;27;20229;-63
2022/12/25 01:48:05;;;;;;;0.70;0.70;;;11.40;99.90;;;;;;5111257;27;20278;-64
2022/12/25 01:50:35;;;;;;;0.77;0.77;;;11.40;99.90;;;;;;5119381;27;20213;-65
2022/12/25 01:53:03;;;;;;;0.53;0.53;;;11.40;99.90;;;;;;5122400;27;20271;-65
2022/12/25 01:55:30;;;;;;;0.60;0.60;;;11.40;99.90;;;;;;5120462;27;20193;-63
2022/12/25 01:57:57;;;;;;;0.80;0.80;;;11.50;99.90;;;;;;5127773;27;20198;-65
2022/12/25 02:00:24;;;;;;;0.73;0.73;;;11.50;99.90;;;;;;5121748;27;20217;-64
2022/12/25 02:02:51;;;;;;;0.60;0.60;;;11.60;99.90;;;;;;5125726;27;20280;-64
2022/12/25 02:05:23;;;;;;;0.83;0.77;;;11.50;99.90;;;;;;5132363;27;20224;-65
2022/12/25 02:07:52;;;;;;;0.80;0.80;;;11.50;99.90;;;;;;5135281;27;20299;-66
2022/12/25 02:10:19;;;;;;;0.60;0.60;;;11.50;99.90;;;;;;5129417;27;20247;-63
2022/12/25 02:12:48;;;;;;;0.80;0.80;;;11.40;99.90;;;;;;5124142;27;20205;-64
2022/12/25 02:15:19;;;;;;;0.50;0.50;;;11.50;99.90;;;;;;5117944;27;20247;-66
2022/12/25 02:17:55;;;;;;;0.60;0.60;;;11.50;99.90;;;;;;5121079;27;20246;-66
2022/12/25 02:20:46;;;;;;;0.67;0.67;;;11.50;99.90;;;;;;5121776;27;20380;-66
2022/12/25 02:23:56;;;;;;;0.60;0.60;;;11.50;99.90;;;;;;5120637;27;20209;-65
2022/12/25 02:26:56;;;;;;;0.43;0.43;;;11.40;99.90;;;;;;5058005;28;20664;-67
2022/12/25 02:29:30;;;;;;;0.63;0.63;;;11.40;99.90;;;;;;5119695;27;20617;-65
2022/12/25 02:32:02;;;;;;;0.60;0.60;;;11.40;99.90;;;;;;5119918;27;20223;-64
2022/12/25 02:34:34;;;;;;;0.70;0.70;;;11.40;99.90;;;;;;5116718;27;20207;-66
2022/12/25 02:37:06;;;;;;;0.93;0.73;;;11.30;99.90;;;;;;5120916;27;20247;-66
2022/12/25 02:39:58;;;;;;;0.70;0.70;;;11.30;99.90;;;;;;5111326;27;20227;-65
2022/12/25 03:07:50;;;;;;;0.63;0.63;;;11.50;99.90;;;;;;5125870;27;20722;-68
2022/12/25 03:13:08;;;;;;;0.70;0.70;;;11.50;99.90;;;;;;5130507;27;20278;-65
2022/12/25 03:18:25;;;;;;;0.50;0.50;;;11.40;99.90;;;;;;5130260;27;20349;-65
2022/12/25 03:26:56;;;;;;;0.30;0.30;;;11.40;99.90;;;;;;5110107;27;20212;-66
2022/12/25 03:32:25;;;;;;;0.70;0.70;;;11.40;99.90;;;;;;5123024;27;20275;-65
2022/12/25 04:36:10;;;;;;;0.30;0.30;;;11.50;99.90;;;;;;5123233;27;20278;-64
2022/12/25 04:38:38;;;;;;;0.50;0.50;;;11.50;99.90;;;;;;5124865;27;20249;-64
2022/12/25 04:41:07;;;;;;;0.60;0.60;;;11.60;99.90;;;;;;5122610;27;20663;-65
2022/12/25 04:43:33;;;;;;;0.40;0.40;;;11.60;99.90;;;;;;5123574;27;20204;-63
2022/12/25 04:46:01;;;;;;;0.67;0.67;;;11.60;99.90;;;;;;5123376;27;20217;-65
2022/12/25 04:48:31;;;;;;;0.60;0.50;;;11.60;99.90;;;;;;5113732;27;20670;-65
2022/12/25 04:50:58;;;;;;;0.53;0.40;;;11.70;99.90;;;;;;5118856;27;20229;-65
2022/12/25 04:53:25;;;;;;;0.40;0.40;;;11.70;99.90;;;;;;5135869;27;20554;-65
2022/12/25 04:56:01;;;;;;;0.43;0.43;;;11.60;99.90;;;;;;5136610;27;20608;-66
2022/12/25 04:58:29;;;;;;;0.40;0.40;;;11.60;99.90;;;;;;5123583;27;20196;-66
2022/12/25 05:00:59;;;;;;;0.50;0.50;;;11.60;99.90;;;;;;5123828;27;20221;-67
2022/12/25 05:03:26;;;;;;;0.50;0.50;;;11.70;99.90;;;;;;5122732;27;20197;-65
2022/12/25 05:05:52;;;;;;;0.30;0.30;;;11.70;99.90;;;;;;5123879;27;20227;-67
2022/12/25 05:08:19;;;;;;;0.30;0.30;;;11.60;99.90;;;;;;5121670;27;20292;-67
2022/12/25 05:10:46;;;;;;;1.10;0.50;;;11.60;99.90;;;;;;5124085;27;20235;-65
2022/12/25 05:13:13;;;;;;;0.30;0.30;;;11.60;99.90;;;;;;5121734;27;20201;-66
2022/12/25 05:15:42;;;;;;;0.27;0.27;;;11.50;99.90;;;;;;5124357;27;20630;-66
2022/12/25 05:18:09;;;;;;;0.40;0.40;;;11.60;99.90;;;;;;5123410;27;20202;-65
2022/12/25 05:20:36;;;;;;;0.50;0.50;;;11.60;99.90;;;;;;5125899;27;20217;-66
2022/12/25 05:23:03;;;;;;;0.30;0.30;;;11.60;99.90;;;;;;5123161;27;20208;-66
2022/12/25 05:25:30;;;;;;;0.60;0.60;;;11.60;99.90;;;;;;5120130;27;20305;-66
2022/12/25 05:27:56;;;;;;;0.40;0.40;;;11.60;99.90;;;;;;5125920;27;20201;-65
2022/12/25 05:30:23;;;;;;;0.30;0.30;;;11.60;99.90;;;;;;5120784;27;20221;-66
2022/12/25 05:32:51;;;;;;;0.50;0.50;;;11.60;99.90;;;;;;5121029;27;20216;-66
2022/12/25 05:35:18;;;;;;;0.57;0.57;;;11.60;99.90;;;;;;5121985;27;20204;-67
2022/12/25 05:37:45;;;;;;;0.43;0.43;;;11.60;99.90;;;;;;5124183;27;20560;-66
2022/12/25 05:40:12;;;;;;;0.60;0.60;;;11.60;99.90;;;;;;5120910;27;20217;-65
2022/12/25 05:42:39;;;;;;;0.50;0.50;;;11.60;99.90;;;;;;5124593;27;20208;-65
2022/12/25 05:45:07;;;;;;;0.50;0.50;;;11.60;99.90;;;;;;5119965;27;20240;-65
2022/12/25 05:47:34;;;;;;;0.50;0.50;;;11.60;99.90;;;;;;5127533;27;20221;-66
2022/12/25 05:50:02;;;;;;;0.40;0.40;;;11.50;99.90;;;;;;5120050;27;20546;-67
2022/12/25 05:52:31;;;;;;;0.50;0.50;;;11.50;99.90;;;;;;5106182;27;20267;-65
2022/12/25 05:54:58;;;;;;;0.53;0.40;;;11.50;99.90;;;;;;5122770;27;20668;-64
2022/12/25 05:57:25;;;;;;;0.50;0.50;;;11.50;99.90;;;;;;5123325;27;20197;-66
2022/12/25 05:59:52;;;;;;;0.30;0.30;;;11.60;99.90;;;;;;5129162;27;20688;-67
2022/12/25 06:02:19;;;;;;;0.27;0.27;;;11.70;99.90;;;;;;5119847;27;20210;-66
2022/12/25 06:04:46;;;;;;;0.77;0.57;;;11.60;99.90;;;;;;5124552;27;20297;-67
2022/12/25 06:07:14;;;;;;;0.40;0.40;;;11.60;99.90;;;;;;5116978;27;20212;-65
2022/12/25 06:09:41;;;;;;;0.40;0.40;;;11.70;99.90;;;;;;5126503;27;20247;-64
2022/12/25 06:12:08;;;;;;;0.40;0.40;;;11.70;99.90;;;;;;5120713;27;20204;-65
2022/12/25 06:14:35;;;;;;;0.50;0.50;;;11.70;99.90;;;;;;5122389;27;20659;-64
2022/12/25 06:17:02;;;;;;;0.40;0.40;;;11.70;99.90;;;;;;5125573;27;20194;-64
2022/12/25 06:19:29;;;;;;;0.50;0.50;;;11.70;99.90;;;;;;5108227;27;20221;-64
2022/12/25 06:21:56;;;;;;;0.40;0.40;;;11.80;99.90;;;;;;5123959;27;20198;-65
2022/12/25 06:24:24;;;;;;;0.50;0.50;;;11.80;99.90;;;;;;5125236;27;20299;-64
2022/12/25 06:26:51;;;;;;;0.50;0.50;;;11.80;99.90;;;;;;5122549;27;20202;-66
2022/12/25 06:29:17;;;;;;;0.40;0.40;;;11.90;99.90;;;;;;5121344;27;20205;-65
2022/12/25 06:31:44;;;;;;;0.47;0.47;;;11.80;99.90;;;;;;5122950;27;20223;-65
2022/12/25 06:34:15;;;;;;;0.53;0.53;;;11.80;99.90;;;;;;5122408;27;20203;-65
2022/12/25 06:36:42;;;;;;;0.47;0.43;;;11.80;99.90;;;;;;5122684;27;20193;-66
2022/12/25 06:39:10;;;;;;;0.30;0.30;;;11.80;99.90;;;;;;5121939;27;20204;-64
2022/12/25 06:41:38;;;;;;;0.60;0.60;;;11.80;99.90;;;;;;5122933;27;20546;-64
2022/12/25 06:44:05;;;;;;;0.57;0.57;;;11.80;99.90;;;;;;5130188;27;20288;-64
2022/12/25 06:46:32;;;;;;;0.27;0.27;;;11.80;99.90;;;;;;5126787;27;20761;-66
2022/12/25 06:48:59;;;;;;;0.40;0.40;;;11.80;99.90;;;;;;5123255;27;20215;-64
2022/12/25 06:51:28;;;;;;;0.50;0.50;;;11.80;99.90;;;;;;5119852;27;20218;-63
2022/12/25 06:53:56;;;;;;;0.53;0.53;;;11.90;99.90;;;;;;5131052;28;20216;-65
2022/12/25 06:56:24;;;;;;;0.77;0.77;;;11.90;99.90;;;;;;5131036;27;20289;-65
2022/12/25 06:58:55;;;;;;;0.57;0.57;;;11.80;99.90;;;;;;5124768;28;20721;-66
2022/12/25 07:01:24;;;;;;;0.50;0.50;;;11.70;99.90;;;;;;5120476;27;20225;-64
2022/12/25 07:03:54;;;;;;;0.80;0.80;;;11.60;99.90;;;;;;5123956;28;20208;-64
2022/12/25 07:06:21;;;;;;;0.70;0.70;;;11.70;99.90;;;;;;5118804;27;20213;-63
2022/12/25 07:08:48;;;;;;;1.20;1.10;;;11.60;99.90;;;;;;5118054;28;20194;-64
2022/12/25 07:11:15;;;;;;;0.70;0.70;;;11.50;99.90;;;;;;5124213;28;20217;-64
2022/12/25 07:13:42;;;;;;;1.13;1.13;;;11.50;99.90;;;;;;5116919;28;20201;-64
2022/12/25 07:16:12;;;;;;;1.00;1.00;;;11.60;99.90;;;;;;5125205;28;20233;-64
2022/12/25 07:18:39;;;;;;;0.83;0.83;;;11.60;99.90;;;;;;5111111;28;20209;-64
2022/12/25 07:21:08;;;;;;;1.10;1.00;;;11.60;99.90;;;;;;5125676;28;20308;-64
2022/12/25 07:23:35;;;;;;;1.00;1.00;;;11.50;99.90;;;;;;5117470;28;20202;-64
2022/12/25 07:26:02;;;;;;;1.03;1.03;;;11.50;99.90;;;;;;5117778;28;20224;-64
2022/12/25 07:28:29;;;;;;;0.80;0.80;;;11.50;99.90;;;;;;5111330;28;20266;-64
2022/12/25 07:31:01;;;;;;;1.00;0.90;;;11.60;99.90;;;;;;5113748;28;20283;-63
2022/12/25 07:33:30;;;;;;;0.77;0.77;;;11.60;99.90;;;;;;5115776;28;20209;-63
2022/12/25 07:35:56;;;;;;;0.80;0.80;;;11.60;99.90;;;;;;5120716;27;20799;-63
2022/12/25 07:38:23;;;;;;;1.00;1.00;;;11.60;99.90;;;;;;5121747;28;20209;-65
2022/12/25 07:40:50;;;;;;;0.80;0.80;;;11.60;99.90;;;;;;5122961;27;20325;-63
2022/12/25 07:43:17;;;;;;;0.80;0.80;;;11.60;99.90;;;;;;5120770;27;20259;-64
2022/12/25 07:45:44;;;;;;;0.90;0.90;;;11.60;99.90;;;;;;5121519;27;20221;-64
2022/12/25 07:48:11;;;;;;;0.83;0.83;;;11.60;99.90;;;;;;5123006;27;20205;-63
2022/12/25 07:50:39;;;;;;;0.83;0.83;;;11.60;99.90;;;;;;5123527;27;20585;-64
2022/12/25 07:53:06;;;;;;;1.07;1.00;;;11.70;99.90;;;;;;5121778;27;20205;-66
2022/12/25 07:55:33;;;;;;;0.80;0.80;;;11.70;99.90;;;;;;5125768;27;20575;-66
2022/12/25 07:58:00;;;;;;;0.80;0.80;;;11.70;99.90;;;;;;5123131;27;20198;-66
2022/12/25 08:00:31;;;;;;;0.73;0.73;;;11.70;99.90;;;;;;5125544;27;20236;-66
2022/12/25 08:02:58;;;;;;;0.73;0.73;;;11.70;99.90;;;;;;5128613;27;20194;-66
2022/12/25 08:05:26;;;;;;;0.67;0.63;;;11.80;99.90;;;;;;5132333;27;20269;-67
2022/12/25 08:07:55;;;;;;;0.60;0.60;;;11.80;99.90;;;;;;5131417;27;20221;-64
2022/12/25 08:10:22;;;;;;;0.93;0.63;;;11.80;99.90;;;;;;5126295;27;20263;-65
2022/12/25 08:12:50;;;;;;;0.63;0.63;;;11.90;99.90;;;;;;5138691;27;20844;-65
2022/12/25 08:15:18;;;;;;;0.70;0.70;;;11.90;99.90;;;;;;5127683;27;20198;-65
2022/12/25 08:17:44;;;;;;;0.50;0.50;;;12.00;99.90;;;;;;5129200;27;20198;-65
2022/12/25 08:20:12;;;;;;;0.80;0.80;;;12.00;99.90;;;;;;5131615;27;20803;-68
2022/12/25 08:22:39;;;;;;;0.80;0.80;;;12.10;99.90;;;;;;5133985;27;20235;-67
2022/12/25 08:25:08;;;;;;;1.00;1.00;;;12.10;99.90;;;;;;5115965;27;20313;-65
2022/12/25 08:27:35;;;;;;;0.80;0.80;;;12.00;99.90;;;;;;5116536;27;20614;-65
2022/12/25 08:30:02;;;;;;;1.47;1.37;;;11.90;99.90;;;;;;5125815;27;20596;-64
2022/12/25 08:32:31;;;;;;;1.13;1.13;;;12.00;99.90;;;;;;5132975;27;20209;-65
2022/12/25 08:34:58;;;;;;;1.17;1.17;;;12.00;99.90;;;;;;5136659;27;20258;-63
2022/12/25 08:37:25;;;;;;;0.90;0.90;;;12.00;99.90;;;;;;5120950;27;20198;-65
2022/12/25 08:39:52;;;;;;;1.07;1.07;;;11.90;99.90;;;;;;5120368;27;20237;-64
2022/12/25 08:42:20;;;;;;;1.00;1.00;;;11.80;99.90;;;;;;5124081;27;20198;-64
2022/12/25 08:44:47;;;;;;;1.60;1.50;;;11.90;99.90;;;;;;5116760;27;20194;-64
2022/12/25 08:47:14;;;;;;;1.73;1.63;;;12.00;99.90;;;;;;5125899;27;20221;-64
2022/12/25 08:49:41;;;;;;;2.00;1.90;;;12.00;99.90;;;;;;5118957;27;20286;-64
2022/12/25 08:52:07;;;;;;;1.37;1.30;;;12.10;99.90;;;;;;5121942;27;20194;-65
2022/12/25 08:54:35;;;;;;;1.50;1.40;;;12.20;99.90;;;;;;5123149;27;20280;-64
2022/12/25 08:57:02;;;;;;;1.30;1.30;;;12.20;99.90;;;;;;5131833;27;20289;-64
2022/12/25 08:59:30;;;;;;;1.30;1.30;;;12.30;99.90;;;;;;5117751;27;20217;-64
2022/12/25 09:01:57;;;;;;;1.40;1.33;;;12.30;99.90;;;;;;5110439;27;20279;-65
2022/12/25 09:04:24;;;;;;;1.90;1.80;;;12.30;99.90;;;;;;5105980;28;20202;-64
2022/12/25 09:06:51;;;;;;;2.23;2.13;;;12.40;99.90;;;;;;5110725;28;20232;-63
2022/12/25 09:09:18;;;;;;;1.43;1.40;;;12.30;99.90;;;;;;5116878;27;20212;-65
2022/12/25 09:11:44;;;;;;;1.30;1.20;;;12.40;99.90;;;;;;5112529;27;20262;-64
2022/12/25 09:14:13;;;;;;;1.07;1.07;;;12.30;99.90;;;;;;5109889;27;20214;-65
2022/12/25 09:16:41;;;;;;;1.27;1.27;;;12.20;99.90;;;;;;5120944;27;20230;-65
2022/12/25 09:19:08;;;;;;;1.30;1.30;;;12.30;99.90;;;;;;5120842;27;20202;-65
2022/12/25 09:21:35;;;;;;;0.90;0.90;;;12.30;99.90;;;;;;5124704;27;20284;-64
2022/12/25 09:24:02;;;;;;;0.90;0.90;;;12.40;99.90;;;;;;5120425;27;20202;-66
2022/12/25 09:26:29;;;;;;;0.77;0.77;;;12.40;99.90;;;;;;5111727;27;20219;-64
2022/12/25 09:28:56;;;;;;;1.20;1.20;;;12.40;99.90;;;;;;5117220;27;20289;-66
2022/12/25 09:31:23;;;;;;;0.77;0.77;;;12.30;99.90;;;;;;5121770;27;20225;-65
2022/12/25 09:33:55;;;;;;;1.03;1.03;;;12.40;99.90;;;;;;5124443;27;20197;-64
2022/12/25 09:36:22;;;;;;;1.07;1.07;;;12.50;99.90;;;;;;5120207;27;20226;-66
2022/12/25 09:38:49;;;;;;;1.00;1.00;;;12.60;99.90;;;;;;5119198;27;20205;-65
2022/12/25 09:41:20;;;;;;;0.90;0.90;;;12.60;99.90;;;;;;5119795;27;20232;-65
2022/12/25 09:43:50;;;;;;;1.23;1.13;;;12.60;99.90;;;;;;5120361;27;20193;-65
2022/12/25 09:46:21;;;;;;;0.90;0.90;;;12.70;99.90;;;;;;5115983;27;20214;-64
2022/12/25 09:48:57;;;;;;;0.97;0.97;;;12.90;99.90;;;;;;5123326;27;20203;-65
2022/12/25 09:51:27;;;;;;;0.70;0.70;;;13.00;99.90;;;;;;5118563;27;20597;-65
2022/12/25 09:54:02;;;;;;;0.80;0.80;;;13.20;99.90;;;;;;5118682;27;20201;-65
2022/12/25 09:56:28;;;;;;;0.90;0.90;;;13.30;99.90;;;;;;5113460;27;20661;-64
2022/12/25 09:58:55;;;;;;;0.80;0.80;;;13.30;99.90;;;;;;5120465;27;20204;-66
2022/12/25 10:01:31;;;;;;;1.07;0.70;;;13.30;99.90;;;;;;5115798;27;20225;-65
2022/12/25 10:04:26;;;;;;;0.80;0.80;;;13.50;99.90;;;;;;5111762;27;20193;-65
2022/12/25 10:07:02;;;;;;;0.97;0.97;;;13.30;99.90;;;;;;5108615;28;20225;-65
2022/12/25 10:09:54;;;;;;;0.80;0.80;;;13.30;99.90;;;;;;5108448;28;20209;-65
2022/12/25 10:12:35;;;;;;;0.80;0.80;;;13.30;99.90;;;;;;5114943;27;20695;-65
2022/12/25 10:15:13;;;;;;;1.00;1.00;;;13.30;99.90;;;;;;5112728;27;20748;-64
2022/12/25 10:17:53;;;;;;;1.00;1.00;;;13.30;99.90;;;;;;5111655;27;20194;-65
2022/12/25 10:20:34;;;;;;;1.00;1.00;;;13.30;99.90;;;;;;5115763;27;20876;-65
2022/12/25 10:23:04;;;;;;;0.90;0.90;;;13.30;99.90;;;;;;5117716;27;20198;-66
2022/12/25 10:25:31;;;;;;;0.70;0.70;;;13.40;99.90;;;;;;5112237;28;20201;-65
2022/12/25 10:28:03;;;;;;;0.80;0.80;;;13.40;99.90;;;;;;5114976;27;20710;-64
2022/12/25 10:30:31;;;;;;;0.90;0.90;;;13.50;99.90;;;;;;5113279;27;20217;-64
2022/12/25 10:32:58;;;;;;;0.90;0.90;;;13.50;99.90;;;;;;5114475;27;20217;-65
2022/12/25 10:35:29;;;;;;;0.90;0.90;;;13.60;99.90;;;;;;5121800;27;20289;-65
2022/12/25 10:38:00;;;;;;;0.70;0.70;;;13.70;99.90;;;;;;5120034;27;20236;-62
2022/12/25 10:40:34;;;;;;;1.00;1.00;;;13.70;99.90;;;;;;5114322;27;20227;-63
2022/12/25 10:43:08;;;;;;;0.90;0.90;;;13.80;99.90;;;;;;5112825;28;20607;-63
2022/12/25 10:45:43;;;;;;;0.83;0.83;;;13.80;99.90;;;;;;5107312;28;20198;-65
2022/12/25 10:48:17;;;;;;;0.93;0.93;;;13.90;99.90;;;;;;5111210;28;20205;-62
2022/12/25 10:50:45;;;;;;;0.90;0.90;;;13.80;99.90;;;;;;5116779;27;20232;-63
2022/12/25 10:53:19;;;;;;;0.77;0.77;;;13.80;99.90;;;;;;5117943;28;20210;-65
2022/12/25 10:55:58;;;;;;;1.00;1.00;;;13.70;99.90;;;;;;5119792;27;20200;-65
2022/12/25 10:58:25;;;;;;;0.87;0.87;;;13.50;99.90;;;;;;5124755;28;20194;-67
2022/12/25 11:00:54;;;;;;;0.80;0.80;;;13.50;99.90;;;;;;5123473;28;20229;-65
2022/12/25 11:03:23;;;;;;;1.00;1.00;;;13.50;99.90;;;;;;5114145;28;20208;-64
2022/12/25 11:05:53;;;;;;;1.07;1.07;;;13.40;99.90;;;;;;5119231;27;20209;-63
2022/12/25 11:08:26;;;;;;;1.10;1.00;;;13.50;99.90;;;;;;5117536;28;20204;-63
2022/12/25 11:10:56;;;;;;;1.03;1.03;;;13.50;99.90;;;;;;5117333;28;20217;-62
2022/12/25 11:13:28;;;;;;;1.17;1.17;;;13.50;99.90;;;;;;5111520;28;20201;-65
2022/12/25 11:16:04;;;;;;;0.90;0.90;;;13.60;99.90;;;;;;5112959;28;20198;-64
2022/12/25 11:18:34;;;;;;;1.00;1.00;;;13.60;99.90;;;;;;5107934;28;20202;-64
2022/12/25 11:21:14;;;;;;;1.00;1.00;;;13.60;99.90;;;;;;5108883;28;20309;-67
2022/12/25 11:23:45;;;;;;;0.80;0.80;;;13.70;99.90;;;;;;5109609;28;20205;-66
2022/12/25 11:26:12;;;;;;;0.80;0.80;;;13.80;99.90;;;;;;5114293;28;20233;-64
2022/12/25 11:28:41;;;;;;;0.70;0.70;;;13.80;99.90;;;;;;5114418;27;20664;-64
2022/12/25 11:31:11;;;;;;;1.00;0.90;;;13.90;99.90;;;;;;5113177;28;20228;-63
2022/12/25 11:33:42;;;;;;;0.80;0.80;;;13.90;99.90;;;;;;5111798;28;20715;-62
2022/12/25 11:36:20;;;;;;;0.87;0.87;;;13.90;99.90;;;;;;5113740;27;20194;-64
2022/12/25 11:38:47;;;;;;;0.80;0.80;;;13.90;99.90;;;;;;5113433;27;20247;-64
2022/12/25 11:41:19;;;;;;;0.87;0.87;;;14.00;99.90;;;;;;5121990;27;20714;-63
2022/12/25 11:43:50;;;;;;;1.00;1.00;;;14.10;99.90;;;;;;5119310;27;20201;-64
2022/12/25 11:46:23;;;;;;;0.90;0.90;;;14.20;99.90;;;;;;5124652;27;20249;-62
2022/12/25 11:48:55;;;;;;;0.80;0.80;;;14.10;99.90;;;;;;5120196;27;20198;-63
2022/12/25 11:51:25;;;;;;;0.87;0.87;;;14.10;99.90;;;;;;5129972;27;20266;-63
2022/12/25 11:53:54;;;;;;;1.07;1.07;;;14.10;99.90;;;;;;5127673;27;20292;-64
2022/12/25 11:56:24;;;;;;;0.80;0.80;;;14.10;99.90;;;;;;5127225;27;20218;-63
2022/12/25 11:58:53;;;;;;;0.90;0.90;;;14.10;99.90;;;;;;5123927;27;20198;-66
2022/12/25 12:01:32;;;;;;;0.90;0.90;;;14.10;99.90;;;;;;5130312;27;20244;-64
2022/12/25 12:04:00;;;;;;;0.90;0.90;;;14.10;99.90;;;;;;5120950;27;20206;-64
2022/12/25 12:06:43;;;;;;;0.80;0.80;;;14.10;99.90;;;;;;5120396;27;20280;-63
2022/12/25 12:09:25;;;;;;;0.90;0.90;;;14.00;99.90;;;;;;5112996;27;20198;-62
2022/12/25 12:12:00;;;;;;;1.00;1.00;;;14.10;99.90;;;;;;5113941;27;20285;-65
2022/12/25 12:14:39;;;;;;;0.83;0.83;;;14.20;99.90;;;;;;5118057;27;20200;-63
2022/12/25 12:17:10;;;;;;;0.80;0.80;;;14.20;99.90;;;;;;5114561;27;20190;-63
2022/12/25 12:19:37;;;;;;;0.90;0.90;;;14.20;99.90;;;;;;5113806;27;20218;-64
2022/12/25 12:22:18;;;;;;;0.90;0.90;;;14.10;99.90;;;;;;5116308;27;20208;-64
2022/12/25 12:24:52;;;;;;;1.10;1.00;;;14.20;99.90;;;;;;5114711;27;20202;-64
2022/12/25 12:27:27;;;;;;;0.90;0.90;;;14.20;99.90;;;;;;5114729;28;20676;-64
2022/12/25 12:29:57;;;;;;;0.90;0.90;;;14.30;99.90;;;;;;5114690;27;20240;-64
2022/12/25 12:32:37;;;;;;;0.80;0.80;;;14.30;99.90;;;;;;5123504;27;20223;-63
2022/12/25 12:35:14;;;;;;;0.90;0.80;;;14.30;99.90;;;;;;5115386;27;20200;-63
2022/12/25 12:37:44;;;;;;;1.00;0.90;;;14.30;99.90;;;;;;5118543;27;20205;-63
2022/12/25 12:40:27;;;;;;;1.00;1.00;;;14.40;99.90;;;;;;5128793;27;20703;-63
2022/12/25 12:42:54;;;;;;;0.80;0.80;;;14.40;99.90;;;;;;5114824;27;20200;-62
2022/12/25 12:45:25;;;;;;;0.90;0.90;;;14.40;99.90;;;;;;5122692;27;20202;-62
2022/12/25 12:47:52;;;;;;;0.90;0.90;;;14.50;99.90;;;;;;5115017;27;20206;-63
2022/12/25 12:50:32;;;;;;;0.83;0.83;;;14.50;99.90;;;;;;5125569;27;20228;-63
2022/12/25 12:53:15;;;;;;;0.93;0.93;;;14.50;99.90;;;;;;5143370;27;20718;-65
2022/12/25 12:55:42;;;;;;;0.90;0.90;;;14.60;99.90;;;;;;5116057;28;20197;-66
2022/12/25 12:58:26;;;;;;;0.80;0.80;;;14.60;99.90;;;;;;5118215;27;20203;-66
2022/12/25 13:01:00;;;;;;;0.87;0.87;;;14.60;99.90;;;;;;5105436;28;20227;-63
2022/12/25 13:03:39;;;;;;;0.83;0.83;;;14.50;99.90;;;;;;5127135;27;20231;-63
2022/12/25 13:06:14;;;;;;;0.83;0.83;;;14.50;99.90;;;;;;5128191;27;20234;-64
2022/12/25 13:08:55;;;;;;;0.77;0.77;;;14.60;99.90;;;;;;5115294;27;20190;-64
2022/12/25 13:11:26;;;;;;;0.90;0.90;;;14.70;99.90;;;;;;5131773;27;20621;-64
2022/12/25 13:13:55;;;;;;;1.07;0.90;;;14.60;99.90;;;;;;5119273;27;20233;-64
2022/12/25 13:16:26;;;;;;;0.90;0.90;;;14.70;99.90;;;;;;5121469;28;20542;-63
2022/12/25 13:18:55;;;;;;;1.00;1.00;;;14.70;99.90;;;;;;5111834;28;20207;-63
2022/12/25 13:21:24;;;;;;;0.93;0.93;;;14.70;99.90;;;;;;5113478;28;20226;-62
2022/12/25 13:23:58;;;;;;;0.90;0.90;;;14.80;99.90;;;;;;5104754;28;20311;-63
2022/12/25 13:26:26;;;;;;;0.97;0.97;;;14.80;99.90;;;;;;5124324;27;20229;-62
2022/12/25 13:28:54;;;;;;;1.20;1.13;;;14.80;99.90;;;;;;5114655;28;20632;-63
2022/12/25 13:31:24;;;;;;;1.00;1.00;;;14.80;99.90;;;;;;5104843;27;20339;-63
2022/12/25 13:33:56;;;;;;;0.97;0.97;;;14.80;99.90;;;;;;5096271;27;20203;-63
2022/12/25 13:36:23;;;;;;;0.70;0.70;;;14.80;99.90;;;;;;5102673;27;20304;-64
2022/12/25 13:38:52;;;;;;;0.90;0.90;;;14.70;99.90;;;;;;5096926;27;20252;-63
2022/12/25 13:44:16;;;;;;;0.93;0.93;;;14.60;99.90;;;;;;5122632;27;20286;-63
2022/12/25 13:46:43;;;;;;;0.90;0.90;;;14.60;99.90;;;;;;5117731;27;20208;-64
2022/12/25 13:49:15;;;;;;;1.10;1.10;;;14.60;99.90;;;;;;5122434;27;20209;-63
2022/12/25 13:51:42;;;;;;;1.00;1.00;;;14.50;99.90;;;;;;5117623;27;20202;-63
2022/12/25 13:54:11;;;;;;;1.07;1.07;;;14.40;99.90;;;;;;5127458;27;20224;-64
2022/12/25 13:56:47;;;;;;;1.00;1.00;;;14.40;99.90;;;;;;5124456;27;20198;-64
2022/12/25 13:59:16;;;;;;;0.80;0.80;;;14.40;99.90;;;;;;5128375;27;20197;-63
2022/12/25 14:01:43;;;;;;;0.70;0.70;;;14.40;99.90;;;;;;5121346;27;20229;-64
2022/12/25 14:04:14;;;;;;;0.80;0.80;;;14.40;99.90;;;;;;5126653;27;20605;-63
2022/12/25 14:06:41;;;;;;;0.90;0.90;;;14.40;99.90;;;;;;5120739;27;20201;-63
2022/12/25 14:09:11;;;;;;;1.27;1.17;;;14.40;99.90;;;;;;5119806;27;20198;-64
2022/12/25 14:11:41;;;;;;;2.07;1.97;;;14.40;99.90;;;;;;5128773;27;20212;-62
2022/12/25 14:14:17;;;;;;;1.70;1.60;;;14.50;99.90;;;;;;5122826;27;20203;-64
2022/12/25 14:16:47;;;;;;;1.00;1.00;;;14.40;99.90;;;;;;5124666;27;20229;-63
2022/12/25 14:19:25;;;;;;;1.63;1.53;;;14.40;99.90;;;;;;5124656;27;20209;-62
2022/12/25 14:21:56;;;;;;;1.30;1.30;;;14.40;99.90;;;;;;5123155;27;20198;-64
2022/12/25 14:24:25;;;;;;;1.20;1.20;;;14.30;99.90;;;;;;5121556;27;20208;-64
2022/12/25 14:27:00;;;;;;;1.10;1.10;;;14.30;99.90;;;;;;5123720;27;20197;-63
2022/12/25 14:29:32;;;;;;;1.90;1.80;;;14.20;99.90;;;;;;5123089;27;20614;-64
2022/12/25 14:31:59;;;;;;;1.20;1.10;;;14.10;99.90;;;;;;5120136;27;20209;-62
2022/12/25 14:34:29;;;;;;;2.20;2.10;;;14.10;99.90;;;;;;5120645;27;20202;-63
2022/12/25 14:36:56;;;;;;;2.57;2.47;;;14.10;99.90;;;;;;5127144;27;20194;-63
2022/12/25 14:39:29;;;;;;;1.37;1.37;;;14.00;99.90;;;;;;5125024;27;20213;-63
2022/12/25 14:41:58;;;;;;;1.10;1.10;;;14.00;99.90;;;;;;5126405;27;20197;-63
2022/12/25 14:44:31;;;;;;;1.10;1.10;;;13.90;99.90;;;;;;5125993;27;20221;-62
2022/12/25 14:47:04;;;;;;;1.10;1.10;;;13.90;99.90;;;;;;5139411;27;20208;-64